Ketchikan, Alaska
Current Conditions -  °F | °C
As of 12:53 PM on Monday 22 Dec 2014 (Local Time) from PAKT Reporting Station
Broken Clouds Broken Clouds  
Wind Chill: 43°   Ceiling: 3000
Heat Index: 43°   Visibility: 10mi
Dew Point: 40°   Wind: 3mph
Humidity: 89%   Direction: 170°S
Pressure: 30.22"   Gusts: NA
Location:  55.35°N, 131.69°W
Report Text: PAKT 222153Z 17003KT 10SM FEW015 BKN030 06/04 A3022 RMK AO2 SLP233 T00610044
Loading
Personal Weather Stations






























Interactive Weather Map New forecast layout! Learn more

10-Day Weather Forecast

Advertisements
Track Severe Weather on mobile